createdAt,value
2017-11-22T00:01:58.708Z,83.80
2017-11-22T00:04:25.734Z,83.80
2017-11-22T00:06:52.972Z,83.70
2017-11-22T00:09:19.537Z,83.50
2017-11-22T00:11:47.443Z,83.60
2017-11-22T00:14:14.493Z,83.30
2017-11-22T00:16:41.505Z,83.20
2017-11-22T00:19:07.699Z,83.10
2017-11-22T00:21:34.667Z,83.10
2017-11-22T00:24:01.426Z,82.90
2017-11-22T00:26:27.648Z,82.30
2017-11-22T00:28:53.871Z,81.90
2017-11-22T00:31:20.604Z,82.20
2017-11-22T00:33:47.320Z,82.50
2017-11-22T00:36:13.520Z,82.60
2017-11-22T00:38:39.711Z,82.40
2017-11-22T00:41:05.939Z,82.40
2017-11-22T00:43:32.809Z,82.80
2017-11-22T00:46:00.860Z,82.50
2017-11-22T00:48:28.097Z,82.50
2017-11-22T00:50:55.311Z,82.40
2017-11-22T00:53:22.458Z,82.40
2017-11-22T00:55:49.199Z,82.40
2017-11-22T00:58:15.851Z,82.30
2017-11-22T01:00:43.855Z,82.10
2017-11-22T01:03:10.942Z,82.40
2017-11-22T01:05:37.906Z,82.30
2017-11-22T01:08:05.053Z,82.30
2017-11-22T01:10:31.289Z,82.30
2017-11-22T01:12:57.966Z,82.30
2017-11-22T01:15:25.635Z,82.10
2017-11-22T01:17:51.823Z,82.10
2017-11-22T01:20:18.927Z,82.00
2017-11-22T01:22:45.839Z,81.90
2017-11-22T01:25:13.603Z,81.90
2017-11-22T01:27:41.009Z,81.40
2017-11-22T01:30:08.364Z,81.30
2017-11-22T01:32:34.607Z,81.40
2017-11-22T01:35:01.283Z,81.60
2017-11-22T01:37:28.262Z,81.70
2017-11-22T01:39:54.506Z,81.70
2017-11-22T01:42:21.372Z,81.80
2017-11-22T01:44:47.681Z,81.70
2017-11-22T01:47:14.505Z,81.70
2017-11-22T01:49:41.020Z,81.70
2017-11-22T01:52:07.959Z,81.60
2017-11-22T01:54:34.368Z,81.60
2017-11-22T01:57:01.675Z,81.50
2017-11-22T01:59:28.744Z,81.50
2017-11-22T02:01:54.959Z,81.40
2017-11-22T02:04:21.797Z,81.60
2017-11-22T02:06:48.025Z,81.40
2017-11-22T02:09:14.858Z,80.90
2017-11-22T02:11:41.650Z,81.10
2017-11-22T02:14:08.394Z,81.20
2017-11-22T02:16:35.132Z,81.20
2017-11-22T02:19:02.025Z,81.30
2017-11-22T02:21:29.647Z,81.40
2017-11-22T02:23:56.234Z,81.40
2017-11-22T02:26:22.442Z,81.50
2017-11-22T02:28:49.975Z,81.40
2017-11-22T02:31:17.286Z,81.40
2017-11-22T02:33:44.316Z,81.40
2017-11-22T02:36:10.921Z,81.30
2017-11-22T02:38:39.287Z,81.40
2017-11-22T02:41:05.551Z,81.40
2017-11-22T02:43:32.507Z,81.30
2017-11-22T02:45:59.126Z,81.10
2017-11-22T02:48:26.205Z,80.70
2017-11-22T02:50:53.277Z,80.60
2017-11-22T02:53:19.545Z,80.60
2017-11-22T02:55:46.914Z,81.00
2017-11-22T02:58:13.168Z,80.90
2017-11-22T03:00:39.457Z,80.90
2017-11-22T03:03:07.006Z,80.90
2017-11-22T03:05:34.484Z,81.00
2017-11-22T03:08:01.320Z,81.00
2017-11-22T03:10:27.754Z,81.00
2017-11-22T03:12:55.519Z,80.60
2017-11-22T03:15:21.725Z,80.60
2017-11-22T03:17:49.322Z,80.60
2017-11-22T03:20:16.225Z,80.60
2017-11-22T03:22:43.748Z,80.80
2017-11-22T03:25:10.269Z,80.80
2017-11-22T03:27:37.276Z,80.60
2017-11-22T03:30:05.219Z,80.70
2017-11-22T03:32:31.952Z,80.70
2017-11-22T03:34:58.256Z,80.70
2017-11-22T03:37:24.524Z,80.80
2017-11-22T03:39:50.837Z,80.60
2017-11-22T03:42:17.387Z,81.30
2017-11-22T03:44:44.944Z,80.70
2017-11-22T03:47:11.576Z,80.70
2017-11-22T03:49:45.653Z,80.80
2017-11-22T03:52:18.593Z,80.80
2017-11-22T03:54:45.554Z,81.20
2017-11-22T03:57:12.035Z,81.20
2017-11-22T03:59:39.256Z,81.30
2017-11-22T04:02:06.926Z,81.40
2017-11-22T04:04:33.697Z,81.40
2017-11-22T04:07:00.089Z,81.40
2017-11-22T04:09:26.719Z,81.30
2017-11-22T04:11:53.160Z,81.30
2017-11-22T04:14:19.371Z,81.30
2017-11-22T04:16:45.862Z,81.00
2017-11-22T04:19:19.527Z,81.00
2017-11-22T04:21:45.914Z,80.90
2017-11-22T04:24:13.858Z,81.00
2017-11-22T04:26:41.881Z,80.80
2017-11-22T04:29:08.092Z,80.80
2017-11-22T04:31:35.568Z,80.90
2017-11-22T04:34:02.104Z,80.80
2017-11-22T04:36:29.807Z,81.00
2017-11-22T04:38:57.316Z,80.80
2017-11-22T04:41:23.593Z,80.90
2017-11-22T04:43:50.827Z,80.70
2017-11-22T04:46:17.507Z,80.70
2017-11-22T04:48:44.526Z,80.80
2017-11-22T04:51:12.252Z,80.80
2017-11-22T04:53:39.045Z,80.50
2017-11-22T04:56:06.147Z,80.40
2017-11-22T04:58:33.197Z,80.40
2017-11-22T05:01:00.919Z,80.30
2017-11-22T05:03:28.512Z,80.90
2017-11-22T05:05:55.568Z,80.90
2017-11-22T05:08:23.533Z,80.60
2017-11-22T05:10:50.629Z,80.60
2017-11-22T05:13:16.864Z,80.60
2017-11-22T05:15:43.684Z,80.60
2017-11-22T05:18:10.438Z,80.60
2017-11-22T05:20:36.644Z,80.80
2017-11-22T05:23:03.376Z,80.60
2017-11-22T05:25:30.137Z,80.20
2017-11-22T05:27:57.851Z,80.50
2017-11-22T05:30:25.348Z,80.60
2017-11-22T05:32:52.867Z,80.40
2017-11-22T05:35:20.030Z,80.50
2017-11-22T05:37:47.010Z,80.50
2017-11-22T05:40:14.866Z,80.40
2017-11-22T05:42:41.856Z,80.50
2017-11-22T05:45:09.089Z,80.60
2017-11-22T05:47:36.449Z,80.60
2017-11-22T05:50:03.756Z,80.60
2017-11-22T05:52:29.973Z,80.60
2017-11-22T05:54:56.535Z,80.70
2017-11-22T05:57:22.809Z,80.60
2017-11-22T05:59:49.755Z,80.40
2017-11-22T06:02:17.049Z,80.30
2017-11-22T06:04:44.164Z,80.00
2017-11-22T06:07:10.816Z,80.00
2017-11-22T06:09:37.618Z,79.70
2017-11-22T06:12:05.417Z,80.00
2017-11-22T06:14:32.910Z,79.90
2017-11-22T06:17:00.562Z,80.10
2017-11-22T06:19:27.869Z,80.30
2017-11-22T06:21:55.403Z,80.20
2017-11-22T06:24:21.619Z,80.20
2017-11-22T06:26:48.810Z,80.30
2017-11-22T06:29:16.028Z,80.40
2017-11-22T06:31:42.705Z,80.60
2017-11-22T06:34:09.986Z,80.60
2017-11-22T06:36:37.059Z,80.90
2017-11-22T06:39:05.571Z,80.80
2017-11-22T06:41:32.538Z,80.60
2017-11-22T06:43:58.751Z,80.50
2017-11-22T06:46:26.096Z,80.80
2017-11-22T06:48:53.988Z,80.60
2017-11-22T06:51:20.730Z,80.60
2017-11-22T06:53:47.050Z,80.60
2017-11-22T06:56:13.835Z,80.90
2017-11-22T06:58:40.448Z,81.10
2017-11-22T07:01:08.148Z,81.30
2017-11-22T07:03:41.347Z,81.30
2017-11-22T07:06:08.139Z,81.40
2017-11-22T07:08:35.004Z,81.20
2017-11-22T07:11:01.631Z,81.50
2017-11-22T07:13:29.557Z,80.90
2017-11-22T07:15:56.554Z,81.30
2017-11-22T07:18:22.761Z,81.30
2017-11-22T07:20:49.609Z,82.30
2017-11-22T07:23:15.851Z,82.00
2017-11-22T07:25:42.834Z,82.10
2017-11-22T07:28:09.981Z,81.80
2017-11-22T07:30:37.073Z,81.30
2017-11-22T07:33:03.310Z,81.30
2017-11-22T07:35:36.619Z,81.80
2017-11-22T07:38:02.851Z,82.40
2017-11-22T07:40:29.700Z,82.30
2017-11-22T07:42:55.926Z,82.70
2017-11-22T07:45:22.753Z,82.60
2017-11-22T07:47:55.395Z,82.50
2017-11-22T07:50:21.939Z,82.60
2017-11-22T07:52:48.995Z,82.80
2017-11-22T07:55:16.192Z,82.80
2017-11-22T07:57:42.938Z,82.80
2017-11-22T08:00:09.923Z,83.00
2017-11-22T08:02:42.022Z,83.00
2017-11-22T08:05:08.386Z,82.80
2017-11-22T08:07:35.384Z,82.70
2017-11-22T08:10:02.320Z,82.70
2017-11-22T08:12:29.062Z,82.50
2017-11-22T08:14:55.273Z,82.60
2017-11-22T08:17:21.486Z,82.80
2017-11-22T08:19:49.052Z,83.00
2017-11-22T08:22:15.259Z,83.00
2017-11-22T08:24:42.608Z,83.20
2017-11-22T08:27:10.268Z,83.40
2017-11-22T08:29:37.342Z,83.40
2017-11-22T08:32:05.178Z,83.60
2017-11-22T08:34:31.433Z,83.70
2017-11-22T08:36:57.761Z,83.90
2017-11-22T08:39:25.351Z,84.60
2017-11-22T08:41:52.149Z,84.60
2017-11-22T08:44:19.266Z,85.60
2017-11-22T08:46:46.876Z,86.00
2017-11-22T08:49:13.107Z,86.00
2017-11-22T08:51:39.348Z,86.20
2017-11-22T08:54:11.854Z,86.50
2017-11-22T08:56:44.148Z,85.90
2017-11-22T08:59:11.083Z,85.80
2017-11-22T09:01:37.973Z,85.70
2017-11-22T09:04:09.618Z,85.40
2017-11-22T09:06:38.909Z,86.50
2017-11-22T09:09:05.109Z,86.50
2017-11-22T09:11:32.070Z,84.90
2017-11-22T09:13:58.391Z,85.20
2017-11-22T09:16:25.155Z,84.40
2017-11-22T09:18:54.161Z,85.30
2017-11-22T09:21:20.977Z,85.40
2017-11-22T09:23:48.457Z,84.30
2017-11-22T09:26:15.067Z,84.30
2017-11-22T09:28:42.690Z,82.50
2017-11-22T09:31:15.424Z,82.40
2017-11-22T09:33:45.292Z,83.20
2017-11-22T09:36:15.788Z,81.80
2017-11-22T09:38:43.083Z,81.70
2017-11-22T09:41:09.576Z,81.20
2017-11-22T09:43:36.441Z,81.30
2017-11-22T09:46:03.159Z,83.20
2017-11-22T09:48:29.407Z,82.20
2017-11-22T09:50:56.570Z,82.70
2017-11-22T09:53:23.327Z,82.60
2017-11-22T09:55:49.648Z,81.40
2017-11-22T09:58:16.420Z,82.10
2017-11-22T10:00:43.678Z,80.40
2017-11-22T10:03:10.505Z,80.30
2017-11-22T10:05:37.477Z,80.90
2017-11-22T10:08:03.988Z,80.90
2017-11-22T10:10:31.579Z,80.20
2017-11-22T10:12:58.812Z,80.50
2017-11-22T10:15:25.644Z,80.50
2017-11-22T10:17:58.560Z,80.40
2017-11-22T10:20:25.031Z,80.00
2017-11-22T10:22:51.281Z,79.90
2017-11-22T10:25:19.267Z,80.40
2017-11-22T10:27:48.097Z,80.30
2017-11-22T10:30:14.792Z,80.30
2017-11-22T10:32:47.668Z,80.80
2017-11-22T10:35:15.561Z,80.60
2017-11-22T10:37:43.186Z,80.60
2017-11-22T10:40:11.334Z,80.20
2017-11-22T10:42:37.676Z,80.10
2017-11-22T10:45:04.546Z,81.70
2017-11-22T10:47:31.783Z,78.10
2017-11-22T10:49:58.916Z,78.70
2017-11-22T10:52:25.697Z,78.60
2017-11-22T10:54:51.893Z,79.50
2017-11-22T10:57:18.271Z,76.40
2017-11-22T10:59:44.802Z,77.40
2017-11-22T11:02:12.350Z,74.40
2017-11-22T11:04:39.401Z,74.60
2017-11-22T11:07:07.068Z,74.50
2017-11-22T11:09:34.489Z,72.50
2017-11-22T11:12:01.984Z,73.50
2017-11-22T11:14:28.479Z,73.60
2017-11-22T11:16:55.991Z,73.80
2017-11-22T11:19:23.043Z,74.10
2017-11-22T11:21:49.251Z,74.20
2017-11-22T11:24:15.452Z,71.80
2017-11-22T11:26:42.848Z,70.40
2017-11-22T11:29:09.603Z,70.40
2017-11-22T11:31:37.145Z,71.30
2017-11-22T11:34:03.947Z,71.40
2017-11-22T11:36:32.663Z,71.10
2017-11-22T11:38:59.673Z,71.20
2017-11-22T11:41:27.079Z,69.50
2017-11-22T11:43:53.572Z,69.50
2017-11-22T11:46:20.925Z,70.00
2017-11-22T11:48:48.617Z,69.80
2017-11-22T11:51:14.856Z,69.70
2017-11-22T11:53:41.182Z,68.20
2017-11-22T11:56:07.841Z,66.50
2017-11-22T11:58:35.637Z,67.30
2017-11-22T12:01:02.604Z,67.80
2017-11-22T12:03:29.723Z,67.80
2017-11-22T12:05:56.989Z,66.10
2017-11-22T12:08:24.530Z,66.30
2017-11-22T12:10:51.688Z,64.50
2017-11-22T12:13:19.314Z,65.20
2017-11-22T12:15:46.082Z,65.20
2017-11-22T12:18:13.194Z,66.60
2017-11-22T12:20:39.437Z,66.50
2017-11-22T12:23:12.208Z,66.10
2017-11-22T12:25:39.350Z,64.00
2017-11-22T12:28:05.900Z,64.10
2017-11-22T12:30:33.560Z,62.20
2017-11-22T12:33:00.301Z,62.20
2017-11-22T12:35:27.303Z,62.30
2017-11-22T12:37:53.848Z,62.60
2017-11-22T12:40:20.900Z,62.00
2017-11-22T12:42:48.048Z,62.00
2017-11-22T12:45:14.269Z,61.90
2017-11-22T12:47:40.536Z,60.80
2017-11-22T12:50:07.919Z,59.90
2017-11-22T12:52:35.507Z,60.30
2017-11-22T12:55:02.111Z,60.30
2017-11-22T12:57:29.280Z,60.00
2017-11-22T12:59:56.357Z,61.20
2017-11-22T13:02:22.672Z,61.20
2017-11-22T13:04:48.905Z,61.10
2017-11-22T13:07:15.563Z,59.30
2017-11-22T13:09:43.368Z,59.20
2017-11-22T13:12:10.495Z,58.40
2017-11-22T13:14:38.498Z,58.50
2017-11-22T13:17:05.990Z,59.60
2017-11-22T13:19:32.983Z,59.60
2017-11-22T13:21:59.727Z,59.20
2017-11-22T13:24:26.208Z,59.60
2017-11-22T13:26:52.443Z,60.00
2017-11-22T13:29:19.384Z,58.90
2017-11-22T13:31:45.960Z,58.60
2017-11-22T13:34:12.183Z,58.40
2017-11-22T13:36:39.287Z,57.60
2017-11-22T13:39:06.761Z,57.80
2017-11-22T13:41:36.184Z,59.10
2017-11-22T13:44:03.195Z,60.80
2017-11-22T13:46:30.395Z,60.70
2017-11-22T13:48:56.932Z,58.00
2017-11-22T13:51:23.275Z,58.90
2017-11-22T13:53:50.451Z,60.10
2017-11-22T13:56:17.714Z,59.00
2017-11-22T14:01:16.889Z,57.30
2017-11-22T14:03:43.860Z,59.00
2017-11-22T14:06:10.134Z,59.00
2017-11-22T14:08:36.523Z,58.80
2017-11-22T14:11:03.495Z,58.90
2017-11-22T14:13:29.763Z,59.30
2017-11-22T14:15:56.399Z,60.20
2017-11-22T14:18:23.702Z,61.60
2017-11-22T14:20:50.647Z,61.60
2017-11-22T14:23:16.940Z,61.80
2017-11-22T14:25:44.038Z,62.80
2017-11-22T14:28:11.052Z,63.50
2017-11-22T14:30:37.327Z,63.40
2017-11-22T14:33:03.956Z,64.00
2017-11-22T14:35:31.107Z,64.30
2017-11-22T14:37:58.034Z,64.30
2017-11-22T14:40:25.303Z,64.80
2017-11-22T14:42:51.844Z,64.90
2017-11-22T14:45:19.833Z,66.70
2017-11-22T14:47:46.908Z,66.70
2017-11-22T14:50:13.139Z,67.00
2017-11-22T14:52:39.409Z,67.60
2017-11-22T14:55:06.306Z,68.50
2017-11-22T14:57:33.789Z,67.80
2017-11-22T15:00:00.099Z,67.80
2017-11-22T15:02:26.426Z,67.90
2017-11-22T15:04:53.200Z,68.70
2017-11-22T15:07:20.325Z,68.60
2017-11-22T15:09:48.389Z,67.70
2017-11-22T15:12:15.881Z,67.70
2017-11-22T15:14:42.876Z,67.70
2017-11-22T15:17:10.019Z,67.70
2017-11-22T15:19:37.428Z,68.50
2017-11-22T15:22:04.535Z,68.80
2017-11-22T15:24:31.875Z,69.20
2017-11-22T15:26:59.402Z,69.90
2017-11-22T15:29:26.172Z,69.90
2017-11-22T15:31:54.386Z,70.60
2017-11-22T15:34:21.103Z,70.10
2017-11-22T15:36:48.722Z,69.80
2017-11-22T15:39:15.989Z,70.00
2017-11-22T15:41:42.622Z,70.00
2017-11-22T15:44:10.624Z,69.40
2017-11-22T15:46:38.246Z,70.00
2017-11-22T15:49:05.030Z,70.00
2017-11-22T15:51:32.530Z,70.00
2017-11-22T15:53:59.768Z,70.30
2017-11-22T15:56:26.514Z,70.10
2017-11-22T15:58:53.325Z,70.20
2017-11-22T16:01:20.118Z,70.60
2017-11-22T16:03:46.576Z,72.50
2017-11-22T16:06:14.011Z,74.00
2017-11-22T16:08:40.274Z,74.00
2017-11-22T16:11:07.342Z,75.20
2017-11-22T16:13:33.757Z,75.20
2017-11-22T16:16:00.738Z,75.70
2017-11-22T16:18:27.222Z,75.80
2017-11-22T16:20:54.757Z,75.70
2017-11-22T16:23:21.400Z,75.60
2017-11-22T16:25:48.461Z,76.00
2017-11-22T16:28:15.801Z,76.30
2017-11-22T16:30:42.812Z,76.20
2017-11-22T16:33:09.075Z,76.20
2017-11-22T16:35:35.867Z,76.60
2017-11-22T16:38:02.446Z,76.40
2017-11-22T16:40:29.841Z,74.50
2017-11-22T16:42:56.929Z,75.30
2017-11-22T16:45:23.180Z,75.20
2017-11-22T16:47:49.407Z,75.90
2017-11-22T16:50:15.624Z,76.30
2017-11-22T16:52:42.608Z,76.20
2017-11-22T16:55:10.214Z,76.50
2017-11-22T16:57:36.862Z,76.50
2017-11-22T17:00:04.875Z,76.90
2017-11-22T17:02:31.844Z,76.60
2017-11-22T17:04:58.505Z,76.60
2017-11-22T17:07:25.972Z,75.90
2017-11-22T17:09:53.200Z,75.90
2017-11-22T17:12:19.636Z,75.90
2017-11-22T17:14:46.702Z,75.20
2017-11-22T17:17:12.967Z,75.20
2017-11-22T17:19:39.954Z,74.70
2017-11-22T17:22:06.792Z,74.50
2017-11-22T17:24:33.031Z,74.40
2017-11-22T17:26:59.483Z,74.00
2017-11-22T17:29:26.516Z,73.70
2017-11-22T17:31:52.771Z,73.60
2017-11-22T17:34:19.008Z,74.10
2017-11-22T17:36:45.213Z,73.10
2017-11-22T17:39:15.413Z,72.80
2017-11-22T17:41:42.029Z,73.50
2017-11-22T17:44:09.349Z,73.10
2017-11-22T17:46:36.556Z,72.90
2017-11-22T17:49:02.875Z,73.50
2017-11-22T17:51:30.440Z,74.20
2017-11-22T17:53:57.876Z,73.20
2017-11-22T17:56:24.382Z,73.10
2017-11-22T17:58:50.637Z,74.50
2017-11-22T18:01:17.086Z,74.30
2017-11-22T18:03:43.872Z,74.20
2017-11-22T18:06:10.539Z,74.50
2017-11-22T18:08:36.769Z,75.70
2017-11-22T18:11:03.729Z,75.40
2017-11-22T18:13:30.192Z,75.40
2017-11-22T18:15:56.387Z,76.60
2017-11-22T18:18:22.619Z,77.30
2017-11-22T18:20:49.297Z,77.60
2017-11-22T18:23:16.334Z,78.10
2017-11-22T18:25:42.620Z,78.10
2017-11-22T18:28:09.719Z,77.60
2017-11-22T18:30:36.540Z,77.50
2017-11-22T18:33:02.832Z,77.00
2017-11-22T18:35:29.898Z,75.70
2017-11-22T18:37:56.171Z,75.70
2017-11-22T18:40:23.718Z,74.80
2017-11-22T18:42:50.015Z,74.80
2017-11-22T18:45:16.246Z,74.80
2017-11-22T18:47:42.823Z,74.60
2017-11-22T18:50:09.833Z,74.20
2017-11-22T18:52:36.793Z,74.10
2017-11-22T18:55:03.605Z,73.90
2017-11-22T18:57:30.372Z,74.70
2017-11-22T18:59:56.591Z,75.30
2017-11-22T19:02:22.846Z,75.60
2017-11-22T19:04:49.803Z,76.20
2017-11-22T19:07:18.098Z,76.70
2017-11-22T19:09:45.616Z,76.90
2017-11-22T19:12:13.478Z,78.40
2017-11-22T19:14:40.722Z,78.30
2017-11-22T19:17:06.925Z,78.20
2017-11-22T19:19:33.799Z,78.40
2017-11-22T19:22:00.197Z,78.00
2017-11-22T19:24:27.331Z,78.50
2017-11-22T19:26:54.902Z,79.00
2017-11-22T19:29:25.695Z,78.60
2017-11-22T19:31:51.953Z,78.60
2017-11-22T19:34:18.986Z,78.60
2017-11-22T19:36:45.193Z,78.60
2017-11-22T19:39:12.125Z,80.00
2017-11-22T19:41:39.140Z,80.60
2017-11-22T19:44:05.942Z,80.20
2017-11-22T19:46:33.394Z,80.30
2017-11-22T19:48:59.752Z,80.20
2017-11-22T19:51:27.446Z,80.00
2017-11-22T19:53:55.064Z,79.60
2017-11-22T19:56:22.033Z,79.90
2017-11-22T19:58:49.201Z,79.90
2017-11-22T20:01:16.464Z,78.80
2017-11-22T20:03:43.037Z,78.40
2017-11-22T20:06:10.655Z,77.70
2017-11-22T20:08:41.689Z,77.00
2017-11-22T20:11:07.941Z,76.80
2017-11-22T20:13:34.955Z,76.50
2017-11-22T20:16:03.919Z,76.70
2017-11-22T20:18:30.885Z,77.80
2017-11-22T20:20:57.930Z,77.80
2017-11-22T20:23:25.093Z,77.70
2017-11-22T20:25:51.883Z,77.30
2017-11-22T20:28:18.755Z,77.10
2017-11-22T20:30:46.842Z,76.80
2017-11-22T20:33:13.473Z,76.80
2017-11-22T20:35:39.709Z,76.30
2017-11-22T20:38:06.620Z,76.10
2017-11-22T20:40:33.881Z,75.80
2017-11-22T20:43:00.849Z,75.70
2017-11-22T20:45:27.084Z,75.70
2017-11-22T20:47:53.422Z,75.50
2017-11-22T20:50:20.154Z,75.30
2017-11-22T20:52:47.818Z,75.70
2017-11-22T20:55:14.955Z,75.50
2017-11-22T20:57:41.996Z,76.20
2017-11-22T21:00:09.197Z,76.00
2017-11-22T21:02:36.712Z,77.50
2017-11-22T21:05:02.952Z,77.50
2017-11-22T21:07:29.752Z,77.00
2017-11-22T21:09:56.745Z,77.10
2017-11-22T21:12:23.670Z,77.10
2017-11-22T21:14:49.932Z,77.60
2017-11-22T21:17:16.292Z,77.70
2017-11-22T21:19:43.264Z,76.90
2017-11-22T21:22:10.309Z,77.60
2017-11-22T21:24:37.494Z,77.60
2017-11-22T21:27:04.085Z,77.60
2017-11-22T21:29:32.437Z,77.60
2017-11-22T21:31:59.490Z,77.60
2017-11-22T21:34:25.824Z,76.80
2017-11-22T21:36:52.815Z,77.30
2017-11-22T21:39:19.261Z,77.30
2017-11-22T21:41:46.796Z,76.40
2017-11-22T21:44:14.102Z,76.10
2017-11-22T21:46:40.400Z,76.10
2017-11-22T21:49:07.198Z,75.90
2017-11-22T21:51:34.468Z,75.70
2017-11-22T21:54:01.168Z,75.70
2017-11-22T21:56:27.467Z,75.80
2017-11-22T21:58:53.709Z,75.90
2017-11-22T22:01:20.110Z,75.70
2017-11-22T22:03:48.939Z,75.60
2017-11-22T22:06:16.062Z,75.60
2017-11-22T22:08:42.259Z,75.60
2017-11-22T22:11:09.464Z,75.60
2017-11-22T22:13:35.960Z,76.50
2017-11-22T22:16:03.756Z,76.20
2017-11-22T22:18:30.759Z,75.90
2017-11-22T22:20:57.903Z,75.90
2017-11-22T22:23:25.033Z,78.20
2017-11-22T22:25:52.661Z,78.60
2017-11-22T22:28:20.110Z,78.60
2017-11-22T22:30:47.115Z,78.20
2017-11-22T22:33:14.120Z,78.20
2017-11-22T22:35:40.475Z,78.00
2017-11-22T22:38:07.832Z,78.00
2017-11-22T22:40:35.472Z,77.60
2017-11-22T22:43:01.679Z,77.60
2017-11-22T22:45:28.480Z,79.20
2017-11-22T22:47:55.310Z,79.10
2017-11-22T22:50:22.875Z,77.40
2017-11-22T22:52:49.676Z,77.30
2017-11-22T22:55:15.909Z,77.40
2017-11-22T22:57:42.127Z,76.90
2017-11-22T23:00:08.357Z,76.40
2017-11-22T23:02:34.765Z,76.20
2017-11-22T23:05:01.003Z,76.00
2017-11-22T23:07:27.962Z,75.90
2017-11-22T23:09:54.695Z,75.70
2017-11-22T23:12:21.423Z,76.10
2017-11-22T23:14:47.936Z,75.70
2017-11-22T23:17:14.168Z,75.60
2017-11-22T23:19:40.440Z,75.30
2017-11-22T23:22:07.467Z,75.20
2017-11-22T23:24:33.770Z,75.10
2017-11-22T23:27:00.564Z,75.10
2017-11-22T23:29:27.098Z,75.10
2017-11-22T23:31:54.698Z,75.10
2017-11-22T23:34:22.415Z,75.10
2017-11-22T23:36:49.757Z,75.20
2017-11-22T23:39:18.551Z,75.50
2017-11-22T23:41:44.961Z,75.40
2017-11-22T23:44:12.068Z,76.60
2017-11-22T23:46:38.300Z,76.60
2017-11-22T23:49:04.552Z,77.60
2017-11-22T23:51:31.152Z,78.70
2017-11-22T23:53:58.222Z,79.20
2017-11-22T23:56:25.977Z,79.20
2017-11-22T23:58:53.058Z,80.10
